sensor_id;sensor_type;location;lat;lon;timestamp;P1;durP1;ratioP1;P2;durP2;ratioP2
4915;SDS011;70796;52.406;13.230;2023-07-30T00:01:58;11.70;;;7.90;;
4915;SDS011;70796;52.406;13.230;2023-07-30T00:04:25;11.47;;;7.87;;
4915;SDS011;70796;52.406;13.230;2023-07-30T00:06:52;10.37;;;8.77;;
4915;SDS011;70796;52.406;13.230;2023-07-30T00:09:18;10.30;;;8.70;;
4915;SDS011;70796;52.406;13.230;2023-07-30T00:11:44;16.30;;;7.83;;
4915;SDS011;70796;52.406;13.230;2023-07-30T00:14:11;10.67;;;8.07;;
4915;SDS011;70796;52.406;13.230;2023-07-30T00:16:37;13.60;;;8.63;;
4915;SDS011;70796;52.406;13.230;2023-07-30T00:19:03;10.73;;;7.53;;
4915;SDS011;70796;52.406;13.230;2023-07-30T00:21:33;11.00;;;7.47;;
4915;SDS011;70796;52.406;13.230;2023-07-30T00:23:59;16.70;;;8.17;;
4915;SDS011;70796;52.406;13.230;2023-07-30T00:26:26;9.40;;;7.70;;
4915;SDS011;70796;52.406;13.230;2023-07-30T00:28:55;8.40;;;7.60;;
4915;SDS011;70796;52.406;13.230;2023-07-30T00:31:22;17.47;;;7.83;;
4915;SDS011;70796;52.406;13.230;2023-07-30T00:33:49;11.33;;;7.90;;
4915;SDS011;70796;52.406;13.230;2023-07-30T00:36:15;8.50;;;7.57;;
4915;SDS011;70796;52.406;13.230;2023-07-30T00:38:43;11.97;;;9.10;;
4915;SDS011;70796;52.406;13.230;2023-07-30T00:41:10;9.70;;;7.93;;
4915;SDS011;70796;52.406;13.230;2023-07-30T00:43:36;11.97;;;7.83;;
4915;SDS011;70796;52.406;13.230;2023-07-30T00:46:03;13.00;;;8.20;;
4915;SDS011;70796;52.406;13.230;2023-07-30T00:48:30;17.87;;;8.70;;
4915;SDS011;70796;52.406;13.230;2023-07-30T00:50:56;11.33;;;7.40;;
4915;SDS011;70796;52.406;13.230;2023-07-30T00:53:23;12.77;;;8.93;;
4915;SDS011;70796;52.406;13.230;2023-07-30T00:55:50;10.50;;;8.30;;
4915;SDS011;70796;52.406;13.230;2023-07-30T00:58:16;11.63;;;7.67;;
4915;SDS011;70796;52.406;13.230;2023-07-30T01:00:44;15.33;;;8.33;;
4915;SDS011;70796;52.406;13.230;2023-07-30T01:03:11;13.53;;;7.80;;
4915;SDS011;70796;52.406;13.230;2023-07-30T01:05:37;12.20;;;9.63;;
4915;SDS011;70796;52.406;13.230;2023-07-30T01:08:05;13.17;;;9.03;;
4915;SDS011;70796;52.406;13.230;2023-07-30T01:10:31;12.10;;;8.90;;
4915;SDS011;70796;52.406;13.230;2023-07-30T01:12:59;15.50;;;8.73;;
4915;SDS011;70796;52.406;13.230;2023-07-30T01:15:26;14.97;;;8.30;;
4915;SDS011;70796;52.406;13.230;2023-07-30T01:17:53;19.73;;;8.87;;
4915;SDS011;70796;52.406;13.230;2023-07-30T01:20:21;11.50;;;8.10;;
4915;SDS011;70796;52.406;13.230;2023-07-30T01:22:47;12.20;;;8.20;;
4915;SDS011;70796;52.406;13.230;2023-07-30T01:25:14;9.83;;;8.43;;
4915;SDS011;70796;52.406;13.230;2023-07-30T01:27:43;9.00;;;8.10;;
4915;SDS011;70796;52.406;13.230;2023-07-30T01:30:16;12.20;;;7.40;;
4915;SDS011;70796;52.406;13.230;2023-07-30T01:32:44;17.23;;;8.30;;
4915;SDS011;70796;52.406;13.230;2023-07-30T01:35:14;15.43;;;8.90;;
4915;SDS011;70796;52.406;13.230;2023-07-30T01:37:41;13.50;;;9.00;;
4915;SDS011;70796;52.406;13.230;2023-07-30T01:40:09;22.30;;;8.40;;
4915;SDS011;70796;52.406;13.230;2023-07-30T01:42:36;12.60;;;8.10;;
4915;SDS011;70796;52.406;13.230;2023-07-30T01:45:04;14.67;;;8.70;;
4915;SDS011;70796;52.406;13.230;2023-07-30T01:47:31;10.27;;;7.90;;
4915;SDS011;70796;52.406;13.230;2023-07-30T01:49:58;10.43;;;8.40;;
4915;SDS011;70796;52.406;13.230;2023-07-30T01:52:29;10.73;;;8.03;;
4915;SDS011;70796;52.406;13.230;2023-07-30T01:54:57;12.47;;;7.37;;
4915;SDS011;70796;52.406;13.230;2023-07-30T01:57:25;10.77;;;7.60;;
4915;SDS011;70796;52.406;13.230;2023-07-30T01:59:53;10.40;;;8.43;;
4915;SDS011;70796;52.406;13.230;2023-07-30T02:02:25;10.13;;;8.70;;
4915;SDS011;70796;52.406;13.230;2023-07-30T02:04:51;10.43;;;8.33;;
4915;SDS011;70796;52.406;13.230;2023-07-30T02:07:18;12.00;;;8.57;;
4915;SDS011;70796;52.406;13.230;2023-07-30T02:09:44;10.50;;;8.80;;
4915;SDS011;70796;52.406;13.230;2023-07-30T02:12:11;20.10;;;8.87;;
4915;SDS011;70796;52.406;13.230;2023-07-30T02:14:37;15.50;;;9.10;;
4915;SDS011;70796;52.406;13.230;2023-07-30T02:17:04;8.97;;;8.00;;
4915;SDS011;70796;52.406;13.230;2023-07-30T02:19:30;13.47;;;7.83;;
4915;SDS011;70796;52.406;13.230;2023-07-30T02:21:57;11.70;;;8.30;;
4915;SDS011;70796;52.406;13.230;2023-07-30T02:24:24;11.20;;;8.23;;
4915;SDS011;70796;52.406;13.230;2023-07-30T02:26:50;9.43;;;8.43;;
4915;SDS011;70796;52.406;13.230;2023-07-30T02:29:17;15.60;;;8.80;;
4915;SDS011;70796;52.406;13.230;2023-07-30T02:31:43;11.10;;;7.90;;
4915;SDS011;70796;52.406;13.230;2023-07-30T02:34:09;11.27;;;8.93;;
4915;SDS011;70796;52.406;13.230;2023-07-30T02:36:36;11.30;;;9.33;;
4915;SDS011;70796;52.406;13.230;2023-07-30T02:39:02;10.77;;;8.90;;
4915;SDS011;70796;52.406;13.230;2023-07-30T02:41:29;11.37;;;8.83;;
4915;SDS011;70796;52.406;13.230;2023-07-30T02:43:55;9.97;;;8.37;;
4915;SDS011;70796;52.406;13.230;2023-07-30T02:46:22;13.37;;;9.60;;
4915;SDS011;70796;52.406;13.230;2023-07-30T02:48:48;10.00;;;9.00;;
4915;SDS011;70796;52.406;13.230;2023-07-30T02:51:14;20.27;;;9.60;;
4915;SDS011;70796;52.406;13.230;2023-07-30T02:53:42;11.87;;;9.47;;
4915;SDS011;70796;52.406;13.230;2023-07-30T02:56:08;11.53;;;9.27;;
4915;SDS011;70796;52.406;13.230;2023-07-30T02:58:35;12.40;;;10.13;;
4915;SDS011;70796;52.406;13.230;2023-07-30T03:01:08;12.30;;;10.07;;
4915;SDS011;70796;52.406;13.230;2023-07-30T03:03:35;14.13;;;8.53;;
4915;SDS011;70796;52.406;13.230;2023-07-30T03:06:01;12.00;;;8.80;;
4915;SDS011;70796;52.406;13.230;2023-07-30T03:08:28;20.83;;;9.00;;
4915;SDS011;70796;52.406;13.230;2023-07-30T03:10:57;15.33;;;8.90;;
4915;SDS011;70796;52.406;13.230;2023-07-30T03:13:23;21.93;;;8.77;;
4915;SDS011;70796;52.406;13.230;2023-07-30T03:15:49;14.70;;;9.77;;
4915;SDS011;70796;52.406;13.230;2023-07-30T03:18:16;16.03;;;10.90;;
4915;SDS011;70796;52.406;13.230;2023-07-30T03:20:42;21.00;;;10.50;;
4915;SDS011;70796;52.406;13.230;2023-07-30T03:23:08;12.30;;;11.00;;
4915;SDS011;70796;52.406;13.230;2023-07-30T03:25:35;15.47;;;11.67;;
4915;SDS011;70796;52.406;13.230;2023-07-30T03:28:01;15.83;;;11.00;;
4915;SDS011;70796;52.406;13.230;2023-07-30T03:30:27;18.63;;;11.00;;
4915;SDS011;70796;52.406;13.230;2023-07-30T03:32:54;15.63;;;11.30;;
4915;SDS011;70796;52.406;13.230;2023-07-30T03:35:21;12.77;;;11.03;;
4915;SDS011;70796;52.406;13.230;2023-07-30T03:37:47;13.50;;;11.80;;
4915;SDS011;70796;52.406;13.230;2023-07-30T03:40:13;13.63;;;11.37;;
4915;SDS011;70796;52.406;13.230;2023-07-30T03:42:40;12.67;;;11.37;;
4915;SDS011;70796;52.406;13.230;2023-07-30T03:45:06;12.13;;;10.83;;
4915;SDS011;70796;52.406;13.230;2023-07-30T03:47:33;15.10;;;12.00;;
4915;SDS011;70796;52.406;13.230;2023-07-30T03:49:59;14.70;;;11.47;;
4915;SDS011;70796;52.406;13.230;2023-07-30T03:52:26;12.93;;;11.63;;
4915;SDS011;70796;52.406;13.230;2023-07-30T03:54:52;16.33;;;12.17;;
4915;SDS011;70796;52.406;13.230;2023-07-30T03:57:18;18.47;;;12.40;;
4915;SDS011;70796;52.406;13.230;2023-07-30T03:59:46;13.17;;;10.93;;
4915;SDS011;70796;52.406;13.230;2023-07-30T04:02:12;21.17;;;13.33;;
4915;SDS011;70796;52.406;13.230;2023-07-30T04:04:42;15.03;;;13.40;;
4915;SDS011;70796;52.406;13.230;2023-07-30T04:07:10;15.30;;;13.70;;
4915;SDS011;70796;52.406;13.230;2023-07-30T04:09:37;12.47;;;11.37;;
4915;SDS011;70796;52.406;13.230;2023-07-30T04:12:03;9.70;;;8.70;;
4915;SDS011;70796;52.406;13.230;2023-07-30T04:14:30;8.00;;;7.23;;
4915;SDS011;70796;52.406;13.230;2023-07-30T04:16:57;6.73;;;5.90;;
4915;SDS011;70796;52.406;13.230;2023-07-30T04:19:24;5.10;;;4.60;;
4915;SDS011;70796;52.406;13.230;2023-07-30T04:21:50;6.10;;;5.50;;
4915;SDS011;70796;52.406;13.230;2023-07-30T04:24:17;10.83;;;5.47;;
4915;SDS011;70796;52.406;13.230;2023-07-30T04:26:43;6.93;;;6.23;;
4915;SDS011;70796;52.406;13.230;2023-07-30T04:29:10;7.10;;;6.37;;
4915;SDS011;70796;52.406;13.230;2023-07-30T04:31:37;7.00;;;4.73;;
4915;SDS011;70796;52.406;13.230;2023-07-30T04:34:04;6.30;;;4.90;;
4915;SDS011;70796;52.406;13.230;2023-07-30T04:36:31;4.77;;;4.33;;
4915;SDS011;70796;52.406;13.230;2023-07-30T04:38:57;8.80;;;4.73;;
4915;SDS011;70796;52.406;13.230;2023-07-30T04:41:30;6.30;;;3.90;;
4915;SDS011;70796;52.406;13.230;2023-07-30T04:44:01;5.93;;;4.17;;
4915;SDS011;70796;52.406;13.230;2023-07-30T04:46:31;11.77;;;4.93;;
4915;SDS011;70796;52.406;13.230;2023-07-30T04:49:02;5.63;;;4.10;;
4915;SDS011;70796;52.406;13.230;2023-07-30T04:51:28;8.00;;;4.50;;
4915;SDS011;70796;52.406;13.230;2023-07-30T04:53:55;4.80;;;4.13;;
4915;SDS011;70796;52.406;13.230;2023-07-30T04:56:22;5.07;;;3.90;;
4915;SDS011;70796;52.406;13.230;2023-07-30T04:58:50;4.27;;;3.97;;
4915;SDS011;70796;52.406;13.230;2023-07-30T05:01:16;4.67;;;4.23;;
4915;SDS011;70796;52.406;13.230;2023-07-30T05:03:42;8.00;;;3.37;;
4915;SDS011;70796;52.406;13.230;2023-07-30T05:06:10;6.77;;;3.60;;
4915;SDS011;70796;52.406;13.230;2023-07-30T05:08:36;4.53;;;3.27;;
4915;SDS011;70796;52.406;13.230;2023-07-30T05:11:03;5.27;;;3.53;;
4915;SDS011;70796;52.406;13.230;2023-07-30T05:13:29;4.70;;;3.80;;
4915;SDS011;70796;52.406;13.230;2023-07-30T05:15:56;7.20;;;3.60;;
4915;SDS011;70796;52.406;13.230;2023-07-30T05:18:22;3.80;;;3.50;;
4915;SDS011;70796;52.406;13.230;2023-07-30T05:20:49;9.53;;;4.03;;
4915;SDS011;70796;52.406;13.230;2023-07-30T05:23:16;4.80;;;3.40;;
4915;SDS011;70796;52.406;13.230;2023-07-30T05:25:42;3.60;;;3.30;;
4915;SDS011;70796;52.406;13.230;2023-07-30T05:28:09;3.20;;;2.90;;
4915;SDS011;70796;52.406;13.230;2023-07-30T05:30:35;3.40;;;3.10;;
4915;SDS011;70796;52.406;13.230;2023-07-30T05:33:03;4.37;;;3.53;;
4915;SDS011;70796;52.406;13.230;2023-07-30T05:35:29;4.00;;;3.70;;
4915;SDS011;70796;52.406;13.230;2023-07-30T05:37:59;4.20;;;3.07;;
4915;SDS011;70796;52.406;13.230;2023-07-30T05:40:25;3.27;;;2.97;;
4915;SDS011;70796;52.406;13.230;2023-07-30T05:42:51;4.13;;;2.90;;
4915;SDS011;70796;52.406;13.230;2023-07-30T05:45:17;3.10;;;2.80;;
4915;SDS011;70796;52.406;13.230;2023-07-30T05:47:45;4.50;;;2.77;;
4915;SDS011;70796;52.406;13.230;2023-07-30T05:50:11;4.50;;;2.80;;
4915;SDS011;70796;52.406;13.230;2023-07-30T05:52:37;3.60;;;2.70;;
4915;SDS011;70796;52.406;13.230;2023-07-30T05:55:03;5.37;;;2.70;;
4915;SDS011;70796;52.406;13.230;2023-07-30T05:57:31;6.50;;;3.17;;
4915;SDS011;70796;52.406;13.230;2023-07-30T05:59:57;2.80;;;2.60;;
4915;SDS011;70796;52.406;13.230;2023-07-30T06:02:24;4.23;;;3.00;;
4915;SDS011;70796;52.406;13.230;2023-07-30T06:04:49;4.93;;;3.30;;
4915;SDS011;70796;52.406;13.230;2023-07-30T06:07:16;4.33;;;3.30;;
4915;SDS011;70796;52.406;13.230;2023-07-30T06:09:43;9.03;;;3.63;;
4915;SDS011;70796;52.406;13.230;2023-07-30T06:12:09;3.20;;;2.90;;
4915;SDS011;70796;52.406;13.230;2023-07-30T06:14:36;3.93;;;3.60;;
4915;SDS011;70796;52.406;13.230;2023-07-30T06:17:03;4.00;;;3.67;;
4915;SDS011;70796;52.406;13.230;2023-07-30T06:19:31;4.70;;;3.67;;
4915;SDS011;70796;52.406;13.230;2023-07-30T06:21:57;3.77;;;3.47;;
4915;SDS011;70796;52.406;13.230;2023-07-30T06:24:23;10.63;;;4.23;;
4915;SDS011;70796;52.406;13.230;2023-07-30T06:26:50;5.00;;;3.87;;
4915;SDS011;70796;52.406;13.230;2023-07-30T06:29:16;4.73;;;4.23;;
4915;SDS011;70796;52.406;13.230;2023-07-30T06:31:42;4.47;;;4.03;;
4915;SDS011;70796;52.406;13.230;2023-07-30T06:34:09;4.27;;;3.43;;
4915;SDS011;70796;52.406;13.230;2023-07-30T06:36:35;7.90;;;3.67;;
4915;SDS011;70796;52.406;13.230;2023-07-30T06:39:02;3.83;;;3.47;;
4915;SDS011;70796;52.406;13.230;2023-07-30T06:41:28;3.57;;;3.27;;
4915;SDS011;70796;52.406;13.230;2023-07-30T06:43:54;3.40;;;3.10;;
4915;SDS011;70796;52.406;13.230;2023-07-30T06:46:21;4.03;;;3.50;;
4915;SDS011;70796;52.406;13.230;2023-07-30T06:48:47;4.10;;;3.40;;
4915;SDS011;70796;52.406;13.230;2023-07-30T06:51:14;5.07;;;3.10;;
4915;SDS011;70796;52.406;13.230;2023-07-30T06:53:41;2.80;;;2.60;;
4915;SDS011;70796;52.406;13.230;2023-07-30T06:56:07;3.50;;;3.20;;
4915;SDS011;70796;52.406;13.230;2023-07-30T06:58:34;3.60;;;3.30;;
4915;SDS011;70796;52.406;13.230;2023-07-30T07:01:04;5.90;;;3.53;;
4915;SDS011;70796;52.406;13.230;2023-07-30T07:03:31;7.53;;;3.00;;
4915;SDS011;70796;52.406;13.230;2023-07-30T07:05:58;4.03;;;3.53;;
4915;SDS011;70796;52.406;13.230;2023-07-30T07:08:25;3.53;;;2.87;;
4915;SDS011;70796;52.406;13.230;2023-07-30T07:10:53;2.70;;;2.50;;
4915;SDS011;70796;52.406;13.230;2023-07-30T07:13:19;2.70;;;2.50;;
4915;SDS011;70796;52.406;13.230;2023-07-30T07:15:45;4.30;;;2.53;;
4915;SDS011;70796;52.406;13.230;2023-07-30T07:18:12;4.30;;;3.10;;
4915;SDS011;70796;52.406;13.230;2023-07-30T07:20:39;3.03;;;2.80;;
4915;SDS011;70796;52.406;13.230;2023-07-30T07:23:05;5.20;;;2.73;;
4915;SDS011;70796;52.406;13.230;2023-07-30T07:25:33;3.53;;;2.33;;
4915;SDS011;70796;52.406;13.230;2023-07-30T07:28:00;3.13;;;2.83;;
4915;SDS011;70796;52.406;13.230;2023-07-30T07:30:27;3.73;;;2.80;;
4915;SDS011;70796;52.406;13.230;2023-07-30T07:32:53;3.23;;;2.63;;
4915;SDS011;70796;52.406;13.230;2023-07-30T07:35:21;9.17;;;3.00;;
4915;SDS011;70796;52.406;13.230;2023-07-30T07:37:47;3.20;;;2.87;;
4915;SDS011;70796;52.406;13.230;2023-07-30T07:40:14;10.97;;;8.73;;
4915;SDS011;70796;52.406;13.230;2023-07-30T07:42:40;4.07;;;3.40;;
4915;SDS011;70796;52.406;13.230;2023-07-30T07:45:07;12.93;;;4.23;;
4915;SDS011;70796;52.406;13.230;2023-07-30T07:47:33;3.70;;;3.23;;
4915;SDS011;70796;52.406;13.230;2023-07-30T07:50:01;4.47;;;2.90;;
4915;SDS011;70796;52.406;13.230;2023-07-30T07:52:30;3.57;;;3.27;;
4915;SDS011;70796;52.406;13.230;2023-07-30T07:54:56;3.67;;;3.37;;
4915;SDS011;70796;52.406;13.230;2023-07-30T07:57:23;3.07;;;2.77;;
4915;SDS011;70796;52.406;13.230;2023-07-30T07:59:49;3.77;;;2.70;;
4915;SDS011;70796;52.406;13.230;2023-07-30T08:02:15;2.73;;;2.50;;
4915;SDS011;70796;52.406;13.230;2023-07-30T08:04:43;3.23;;;2.50;;
4915;SDS011;70796;52.406;13.230;2023-07-30T08:07:09;4.03;;;2.40;;
4915;SDS011;70796;52.406;13.230;2023-07-30T08:09:35;2.60;;;2.40;;
4915;SDS011;70796;52.406;13.230;2023-07-30T08:12:01;6.10;;;2.90;;
4915;SDS011;70796;52.406;13.230;2023-07-30T08:14:28;5.47;;;2.40;;
4915;SDS011;70796;52.406;13.230;2023-07-30T08:16:56;4.87;;;3.23;;
4915;SDS011;70796;52.406;13.230;2023-07-30T08:19:22;5.17;;;2.70;;
4915;SDS011;70796;52.406;13.230;2023-07-30T08:21:49;4.27;;;2.97;;
4915;SDS011;70796;52.406;13.230;2023-07-30T08:24:15;2.87;;;2.57;;
4915;SDS011;70796;52.406;13.230;2023-07-30T08:26:42;2.93;;;2.73;;
4915;SDS011;70796;52.406;13.230;2023-07-30T08:29:08;2.73;;;2.47;;
4915;SDS011;70796;52.406;13.230;2023-07-30T08:31:36;5.67;;;2.47;;
4915;SDS011;70796;52.406;13.230;2023-07-30T08:34:07;2.83;;;2.40;;
4915;SDS011;70796;52.406;13.230;2023-07-30T08:36:34;5.00;;;2.30;;
4915;SDS011;70796;52.406;13.230;2023-07-30T08:39:01;8.20;;;2.50;;
4915;SDS011;70796;52.406;13.230;2023-07-30T08:41:29;2.97;;;2.67;;
4915;SDS011;70796;52.406;13.230;2023-07-30T08:43:57;5.80;;;2.53;;
4915;SDS011;70796;52.406;13.230;2023-07-30T08:46:23;2.50;;;2.30;;
4915;SDS011;70796;52.406;13.230;2023-07-30T08:48:50;7.30;;;2.10;;
4915;SDS011;70796;52.406;13.230;2023-07-30T08:51:16;5.80;;;2.70;;
4915;SDS011;70796;52.406;13.230;2023-07-30T08:53:42;2.50;;;2.30;;
4915;SDS011;70796;52.406;13.230;2023-07-30T08:59:27;3.73;;;2.50;;
4915;SDS011;70796;52.406;13.230;2023-07-30T09:01:56;4.13;;;2.40;;
4915;SDS011;70796;52.406;13.230;2023-07-30T09:04:26;5.70;;;2.97;;
4915;SDS011;70796;52.406;13.230;2023-07-30T09:06:54;2.97;;;2.10;;
4915;SDS011;70796;52.406;13.230;2023-07-30T09:09:20;4.10;;;2.20;;
4915;SDS011;70796;52.406;13.230;2023-07-30T09:11:52;4.77;;;1.90;;
4915;SDS011;70796;52.406;13.230;2023-07-30T09:14:23;2.43;;;2.07;;
4915;SDS011;70796;52.406;13.230;2023-07-30T09:17:01;3.43;;;2.10;;
4915;SDS011;70796;52.406;13.230;2023-07-30T09:19:27;2.07;;;1.80;;
4915;SDS011;70796;52.406;13.230;2023-07-30T09:21:54;3.87;;;2.30;;
4915;SDS011;70796;52.406;13.230;2023-07-30T09:24:21;3.50;;;2.37;;
4915;SDS011;70796;52.406;13.230;2023-07-30T09:26:48;3.77;;;2.20;;
4915;SDS011;70796;52.406;13.230;2023-07-30T09:29:14;2.63;;;2.40;;
4915;SDS011;70796;52.406;13.230;2023-07-30T09:31:50;4.30;;;2.47;;
4915;SDS011;70796;52.406;13.230;2023-07-30T09:34:25;3.20;;;2.30;;
4915;SDS011;70796;52.406;13.230;2023-07-30T09:36:53;2.43;;;1.87;;
4915;SDS011;70796;52.406;13.230;2023-07-30T09:39:26;4.80;;;2.40;;
4915;SDS011;70796;52.406;13.230;2023-07-30T09:41:59;7.43;;;2.07;;
4915;SDS011;70796;52.406;13.230;2023-07-30T09:44:25;4.60;;;2.60;;
4915;SDS011;70796;52.406;13.230;2023-07-30T09:46:51;3.23;;;2.07;;
4915;SDS011;70796;52.406;13.230;2023-07-30T09:49:18;2.50;;;1.73;;
4915;SDS011;70796;52.406;13.230;2023-07-30T09:51:45;2.23;;;2.00;;
4915;SDS011;70796;52.406;13.230;2023-07-30T09:54:13;12.43;;;2.37;;
4915;SDS011;70796;52.406;13.230;2023-07-30T09:56:40;3.73;;;2.33;;
4915;SDS011;70796;52.406;13.230;2023-07-30T09:59:07;4.13;;;2.27;;
4915;SDS011;70796;52.406;13.230;2023-07-30T10:01:38;2.83;;;2.20;;
4915;SDS011;70796;52.406;13.230;2023-07-30T10:04:10;4.17;;;2.10;;
4915;SDS011;70796;52.406;13.230;2023-07-30T10:06:42;5.30;;;2.40;;
4915;SDS011;70796;52.406;13.230;2023-07-30T10:09:11;6.20;;;2.47;;
4915;SDS011;70796;52.406;13.230;2023-07-30T10:11:39;3.87;;;2.10;;
4915;SDS011;70796;52.406;13.230;2023-07-30T10:14:06;3.90;;;1.90;;
4915;SDS011;70796;52.406;13.230;2023-07-30T10:16:32;3.33;;;2.00;;
4915;SDS011;70796;52.406;13.230;2023-07-30T10:18:59;2.00;;;1.80;;
4915;SDS011;70796;52.406;13.230;2023-07-30T10:21:25;4.50;;;1.97;;
4915;SDS011;70796;52.406;13.230;2023-07-30T10:24:03;3.27;;;2.30;;
4915;SDS011;70796;52.406;13.230;2023-07-30T10:26:30;5.60;;;2.30;;
4915;SDS011;70796;52.406;13.230;2023-07-30T10:31:40;4.53;;;2.00;;
4915;SDS011;70796;52.406;13.230;2023-07-30T10:34:07;8.60;;;2.40;;
4915;SDS011;70796;52.406;13.230;2023-07-30T10:36:37;4.37;;;2.27;;
4915;SDS011;70796;52.406;13.230;2023-07-30T10:39:19;4.00;;;2.20;;
4915;SDS011;70796;52.406;13.230;2023-07-30T10:41:48;6.07;;;1.70;;
4915;SDS011;70796;52.406;13.230;2023-07-30T10:44:25;2.10;;;1.80;;
4915;SDS011;70796;52.406;13.230;2023-07-30T10:46:53;2.37;;;1.97;;
4915;SDS011;70796;52.406;13.230;2023-07-30T10:49:20;5.63;;;2.30;;
4915;SDS011;70796;52.406;13.230;2023-07-30T10:51:47;3.93;;;2.10;;
4915;SDS011;70796;52.406;13.230;2023-07-30T10:54:13;7.70;;;2.00;;
4915;SDS011;70796;52.406;13.230;2023-07-30T10:56:42;3.90;;;2.17;;
4915;SDS011;70796;52.406;13.230;2023-07-30T10:59:08;4.03;;;1.70;;
4915;SDS011;70796;52.406;13.230;2023-07-30T11:01:38;4.30;;;2.13;;
4915;SDS011;70796;52.406;13.230;2023-07-30T11:04:09;3.90;;;2.20;;
4915;SDS011;70796;52.406;13.230;2023-07-30T11:06:36;4.90;;;1.87;;
4915;SDS011;70796;52.406;13.230;2023-07-30T11:09:03;5.33;;;2.67;;
4915;SDS011;70796;52.406;13.230;2023-07-30T11:11:29;3.97;;;2.20;;
4915;SDS011;70796;52.406;13.230;2023-07-30T11:13:55;8.50;;;2.13;;
4915;SDS011;70796;52.406;13.230;2023-07-30T11:16:23;6.37;;;2.40;;
4915;SDS011;70796;52.406;13.230;2023-07-30T11:18:49;4.97;;;1.83;;
4915;SDS011;70796;52.406;13.230;2023-07-30T11:21:17;4.03;;;1.93;;
4915;SDS011;70796;52.406;13.230;2023-07-30T11:23:44;4.40;;;2.10;;
4915;SDS011;70796;52.406;13.230;2023-07-30T11:26:18;5.83;;;2.00;;
4915;SDS011;70796;52.406;13.230;2023-07-30T11:28:45;4.40;;;2.07;;
4915;SDS011;70796;52.406;13.230;2023-07-30T11:31:13;3.00;;;1.80;;
4915;SDS011;70796;52.406;13.230;2023-07-30T11:33:40;8.63;;;2.30;;
4915;SDS011;70796;52.406;13.230;2023-07-30T11:36:08;3.57;;;2.03;;
4915;SDS011;70796;52.406;13.230;2023-07-30T11:38:35;5.40;;;2.30;;
4915;SDS011;70796;52.406;13.230;2023-07-30T11:41:01;4.87;;;1.97;;
4915;SDS011;70796;52.406;13.230;2023-07-30T11:43:28;8.93;;;3.73;;
4915;SDS011;70796;52.406;13.230;2023-07-30T11:46:13;6.77;;;2.57;;
4915;SDS011;70796;52.406;13.230;2023-07-30T11:48:42;4.70;;;2.10;;
4915;SDS011;70796;52.406;13.230;2023-07-30T11:51:28;4.43;;;2.07;;
4915;SDS011;70796;52.406;13.230;2023-07-30T11:53:57;6.87;;;2.80;;
4915;SDS011;70796;52.406;13.230;2023-07-30T11:56:25;5.33;;;2.00;;
4915;SDS011;70796;52.406;13.230;2023-07-30T11:58:54;4.03;;;2.03;;
4915;SDS011;70796;52.406;13.230;2023-07-30T12:01:20;4.00;;;2.20;;
4915;SDS011;70796;52.406;13.230;2023-07-30T12:03:48;6.73;;;2.50;;
4915;SDS011;70796;52.406;13.230;2023-07-30T12:06:14;2.83;;;2.10;;
4915;SDS011;70796;52.406;13.230;2023-07-30T12:08:41;4.10;;;1.97;;
4915;SDS011;70796;52.406;13.230;2023-07-30T12:11:09;2.03;;;1.80;;
4915;SDS011;70796;52.406;13.230;2023-07-30T12:16:28;5.07;;;2.43;;
4915;SDS011;70796;52.406;13.230;2023-07-30T12:18:54;5.77;;;2.30;;
4915;SDS011;70796;52.406;13.230;2023-07-30T12:21:20;2.93;;;1.93;;
4915;SDS011;70796;52.406;13.230;2023-07-30T12:23:46;3.50;;;2.10;;
4915;SDS011;70796;52.406;13.230;2023-07-30T12:26:14;5.27;;;2.13;;
4915;SDS011;70796;52.406;13.230;2023-07-30T12:28:40;3.70;;;2.30;;
4915;SDS011;70796;52.406;13.230;2023-07-30T12:31:06;3.73;;;1.97;;
4915;SDS011;70796;52.406;13.230;2023-07-30T12:33:33;4.17;;;2.43;;
4915;SDS011;70796;52.406;13.230;2023-07-30T12:35:59;4.20;;;2.20;;
4915;SDS011;70796;52.406;13.230;2023-07-30T12:38:27;4.07;;;2.07;;
4915;SDS011;70796;52.406;13.230;2023-07-30T12:40:54;4.47;;;2.10;;
4915;SDS011;70796;52.406;13.230;2023-07-30T12:43:20;4.60;;;2.20;;
4915;SDS011;70796;52.406;13.230;2023-07-30T12:45:47;4.03;;;2.13;;
4915;SDS011;70796;52.406;13.230;2023-07-30T12:48:13;3.90;;;2.20;;
4915;SDS011;70796;52.406;13.230;2023-07-30T12:50:40;4.80;;;2.07;;
4915;SDS011;70796;52.406;13.230;2023-07-30T12:53:06;5.97;;;2.27;;
4915;SDS011;70796;52.406;13.230;2023-07-30T12:55:32;2.93;;;2.17;;
4915;SDS011;70796;52.406;13.230;2023-07-30T12:57:58;3.97;;;2.27;;
4915;SDS011;70796;52.406;13.230;2023-07-30T13:00:25;3.93;;;2.00;;
4915;SDS011;70796;52.406;13.230;2023-07-30T13:02:53;5.40;;;1.90;;
4915;SDS011;70796;52.406;13.230;2023-07-30T13:05:40;3.53;;;1.97;;
4915;SDS011;70796;52.406;13.230;2023-07-30T13:10:58;3.57;;;1.93;;
4915;SDS011;70796;52.406;13.230;2023-07-30T13:13:25;2.60;;;2.07;;
4915;SDS011;70796;52.406;13.230;2023-07-30T13:15:51;3.47;;;2.07;;
4915;SDS011;70796;52.406;13.230;2023-07-30T13:18:17;3.00;;;2.13;;
4915;SDS011;70796;52.406;13.230;2023-07-30T13:20:44;3.43;;;2.30;;
4915;SDS011;70796;52.406;13.230;2023-07-30T13:23:10;3.30;;;2.10;;
4915;SDS011;70796;52.406;13.230;2023-07-30T13:25:37;4.47;;;2.43;;
4915;SDS011;70796;52.406;13.230;2023-07-30T13:28:03;3.90;;;2.30;;
4915;SDS011;70796;52.406;13.230;2023-07-30T13:30:33;4.20;;;2.00;;
4915;SDS011;70796;52.406;13.230;2023-07-30T13:33:00;3.10;;;2.07;;
4915;SDS011;70796;52.406;13.230;2023-07-30T13:35:26;2.07;;;1.90;;
4915;SDS011;70796;52.406;13.230;2023-07-30T13:37:53;2.10;;;1.90;;
4915;SDS011;70796;52.406;13.230;2023-07-30T13:40:19;1.97;;;1.83;;
4915;SDS011;70796;52.406;13.230;2023-07-30T13:42:46;3.73;;;1.70;;
4915;SDS011;70796;52.406;13.230;2023-07-30T13:45:13;1.90;;;1.67;;
4915;SDS011;70796;52.406;13.230;2023-07-30T13:47:40;3.10;;;1.93;;
4915;SDS011;70796;52.406;13.230;2023-07-30T13:50:08;2.23;;;1.73;;
4915;SDS011;70796;52.406;13.230;2023-07-30T13:52:35;2.67;;;1.70;;
4915;SDS011;70796;52.406;13.230;2023-07-30T13:55:01;4.63;;;1.33;;
4915;SDS011;70796;52.406;13.230;2023-07-30T13:57:27;3.87;;;1.57;;
4915;SDS011;70796;52.406;13.230;2023-07-30T13:59:55;3.47;;;1.27;;
4915;SDS011;70796;52.406;13.230;2023-07-30T14:02:21;2.73;;;1.47;;
4915;SDS011;70796;52.406;13.230;2023-07-30T14:04:48;5.43;;;1.77;;
4915;SDS011;70796;52.406;13.230;2023-07-30T14:07:14;1.90;;;1.30;;
4915;SDS011;70796;52.406;13.230;2023-07-30T14:09:40;2.67;;;1.57;;
4915;SDS011;70796;52.406;13.230;2023-07-30T14:12:08;3.00;;;1.80;;
4915;SDS011;70796;52.406;13.230;2023-07-30T14:14:35;4.00;;;2.23;;
4915;SDS011;70796;52.406;13.230;2023-07-30T14:17:01;2.07;;;1.50;;
4915;SDS011;70796;52.406;13.230;2023-07-30T14:19:33;2.70;;;1.47;;
4915;SDS011;70796;52.406;13.230;2023-07-30T14:21:59;2.60;;;1.40;;
4915;SDS011;70796;52.406;13.230;2023-07-30T14:24:26;6.93;;;1.93;;
4915;SDS011;70796;52.406;13.230;2023-07-30T14:26:52;1.70;;;1.40;;
4915;SDS011;70796;52.406;13.230;2023-07-30T14:29:18;6.40;;;2.10;;
4915;SDS011;70796;52.406;13.230;2023-07-30T14:31:44;5.23;;;1.80;;
4915;SDS011;70796;52.406;13.230;2023-07-30T14:34:12;2.63;;;1.90;;
4915;SDS011;70796;52.406;13.230;2023-07-30T14:36:38;2.43;;;1.40;;
4915;SDS011;70796;52.406;13.230;2023-07-30T14:39:04;7.80;;;2.07;;
4915;SDS011;70796;52.406;13.230;2023-07-30T14:41:31;9.17;;;2.10;;
4915;SDS011;70796;52.406;13.230;2023-07-30T14:43:57;3.30;;;2.20;;
4915;SDS011;70796;52.406;13.230;2023-07-30T14:46:23;6.30;;;2.63;;
4915;SDS011;70796;52.406;13.230;2023-07-30T14:48:51;5.47;;;2.43;;
4915;SDS011;70796;52.406;13.230;2023-07-30T14:51:17;6.67;;;2.30;;
4915;SDS011;70796;52.406;13.230;2023-07-30T14:56:37;8.50;;;2.90;;
4915;SDS011;70796;52.406;13.230;2023-07-30T14:59:04;3.10;;;2.23;;